< < Back
Terminal Aerodrome Forecast


Current Version              Previous Versions:   1  2  3  4  5  6  7  8  9  

Terminal Aerodrome Forecast

360
FTUS42 KGSP 031536 AAA
TAFCLT
TAF AMD
KCLT 031536Z 0316/0412 02003KT P6SM BKN250
     FM031700 01006KT P6SM FEW060 SCT200
     FM040000 02004KT P6SM SCT070 BKN200=



Latest METAR

975
SAUS70 KWBC 031600 RRE
MTRCLT
METAR KCLT 031552Z 03005KT 10SM FEW055 BKN250 31/19 A3001 RMK AO2 SLP153
T03060189


USA.gov is the U.S. government's official web portal to all federal, state and local government web resources and services.